sensor_id;sensor_type;location;lat;lon;timestamp;P1;durP1;ratioP1;P2;durP2;ratioP2
4794;SDS011;2411;47.060;15.064;2022-12-08T00:01:19;96.67;;;13.23;;
4794;SDS011;2411;47.060;15.064;2022-12-08T00:03:49;93.63;;;13.20;;
4794;SDS011;2411;47.060;15.064;2022-12-08T00:12:01;65.43;;;13.50;;
4794;SDS011;2411;47.060;15.064;2022-12-08T00:16:58;63.23;;;12.83;;
4794;SDS011;2411;47.060;15.064;2022-12-08T00:19:26;40.87;;;13.27;;
4794;SDS011;2411;47.060;15.064;2022-12-08T00:21:54;41.80;;;12.10;;
4794;SDS011;2411;47.060;15.064;2022-12-08T00:24:22;41.77;;;12.97;;
4794;SDS011;2411;47.060;15.064;2022-12-08T00:26:51;58.10;;;12.97;;
4794;SDS011;2411;47.060;15.064;2022-12-08T00:29:18;68.67;;;13.87;;
4794;SDS011;2411;47.060;15.064;2022-12-08T00:31:45;56.50;;;14.63;;
4794;SDS011;2411;47.060;15.064;2022-12-08T00:34:13;32.80;;;12.17;;
4794;SDS011;2411;47.060;15.064;2022-12-08T00:36:41;50.73;;;13.50;;
4794;SDS011;2411;47.060;15.064;2022-12-08T00:39:12;30.30;;;11.80;;
4794;SDS011;2411;47.060;15.064;2022-12-08T00:41:40;27.37;;;12.27;;
4794;SDS011;2411;47.060;15.064;2022-12-08T00:44:25;29.20;;;12.33;;
4794;SDS011;2411;47.060;15.064;2022-12-08T00:46:53;25.57;;;12.33;;
4794;SDS011;2411;47.060;15.064;2022-12-08T00:49:20;40.27;;;12.37;;
4794;SDS011;2411;47.060;15.064;2022-12-08T00:51:48;27.57;;;11.70;;
4794;SDS011;2411;47.060;15.064;2022-12-08T00:54:16;32.07;;;11.97;;
4794;SDS011;2411;47.060;15.064;2022-12-08T00:56:43;18.13;;;10.30;;
4794;SDS011;2411;47.060;15.064;2022-12-08T00:59:11;17.47;;;10.20;;
4794;SDS011;2411;47.060;15.064;2022-12-08T01:01:39;17.30;;;9.70;;
4794;SDS011;2411;47.060;15.064;2022-12-08T01:04:07;15.63;;;10.13;;
4794;SDS011;2411;47.060;15.064;2022-12-08T01:06:37;17.50;;;10.30;;
4794;SDS011;2411;47.060;15.064;2022-12-08T01:09:05;15.70;;;9.20;;
4794;SDS011;2411;47.060;15.064;2022-12-08T01:11:34;15.80;;;9.77;;
4794;SDS011;2411;47.060;15.064;2022-12-08T01:14:02;20.83;;;9.63;;
4794;SDS011;2411;47.060;15.064;2022-12-08T01:16:30;17.33;;;10.43;;
4794;SDS011;2411;47.060;15.064;2022-12-08T01:18:59;18.37;;;10.10;;
4794;SDS011;2411;47.060;15.064;2022-12-08T01:21:27;16.93;;;11.03;;
4794;SDS011;2411;47.060;15.064;2022-12-08T01:23:54;17.20;;;10.60;;
4794;SDS011;2411;47.060;15.064;2022-12-08T01:26:23;12.57;;;8.73;;
4794;SDS011;2411;47.060;15.064;2022-12-08T01:28:50;15.40;;;9.50;;
4794;SDS011;2411;47.060;15.064;2022-12-08T01:31:18;14.17;;;9.67;;
4794;SDS011;2411;47.060;15.064;2022-12-08T01:33:47;12.33;;;9.50;;
4794;SDS011;2411;47.060;15.064;2022-12-08T01:38:44;14.43;;;9.23;;
4794;SDS011;2411;47.060;15.064;2022-12-08T01:41:19;14.63;;;10.07;;
4794;SDS011;2411;47.060;15.064;2022-12-08T01:44:01;14.87;;;8.97;;
4794;SDS011;2411;47.060;15.064;2022-12-08T01:46:34;14.10;;;8.10;;
4794;SDS011;2411;47.060;15.064;2022-12-08T01:54:25;13.80;;;9.33;;
4794;SDS011;2411;47.060;15.064;2022-12-08T01:57:04;8.53;;;7.10;;
4794;SDS011;2411;47.060;15.064;2022-12-08T01:59:37;9.13;;;7.83;;
4794;SDS011;2411;47.060;15.064;2022-12-08T02:02:07;7.60;;;6.57;;
4794;SDS011;2411;47.060;15.064;2022-12-08T02:04:36;9.00;;;7.23;;
4794;SDS011;2411;47.060;15.064;2022-12-08T02:07:04;12.00;;;7.70;;
4794;SDS011;2411;47.060;15.064;2022-12-08T02:09:34;9.83;;;7.20;;
4794;SDS011;2411;47.060;15.064;2022-12-08T02:12:03;11.70;;;8.57;;
4794;SDS011;2411;47.060;15.064;2022-12-08T02:14:30;9.37;;;8.37;;
4794;SDS011;2411;47.060;15.064;2022-12-08T02:17:00;11.47;;;8.90;;
4794;SDS011;2411;47.060;15.064;2022-12-08T02:24:42;13.33;;;10.47;;
4794;SDS011;2411;47.060;15.064;2022-12-08T02:27:27;12.23;;;9.90;;
4794;SDS011;2411;47.060;15.064;2022-12-08T02:30:11;14.20;;;9.63;;
4794;SDS011;2411;47.060;15.064;2022-12-08T02:35:38;18.07;;;10.80;;
4794;SDS011;2411;47.060;15.064;2022-12-08T02:44:32;13.87;;;9.30;;
4794;SDS011;2411;47.060;15.064;2022-12-08T02:49:41;12.83;;;9.07;;
4794;SDS011;2411;47.060;15.064;2022-12-08T02:54:43;11.10;;;9.00;;
4794;SDS011;2411;47.060;15.064;2022-12-08T03:00:24;12.30;;;8.50;;
4794;SDS011;2411;47.060;15.064;2022-12-08T03:09:25;12.03;;;7.90;;
4794;SDS011;2411;47.060;15.064;2022-12-08T03:12:18;9.63;;;8.00;;
4794;SDS011;2411;47.060;15.064;2022-12-08T03:14:51;11.43;;;9.43;;
4794;SDS011;2411;47.060;15.064;2022-12-08T03:17:21;10.57;;;8.37;;
4794;SDS011;2411;47.060;15.064;2022-12-08T03:19:51;13.80;;;8.20;;
4794;SDS011;2411;47.060;15.064;2022-12-08T03:22:23;9.60;;;7.70;;
4794;SDS011;2411;47.060;15.064;2022-12-08T03:24:53;10.50;;;8.50;;
4794;SDS011;2411;47.060;15.064;2022-12-08T03:27:25;10.07;;;8.43;;
4794;SDS011;2411;47.060;15.064;2022-12-08T03:29:55;11.00;;;8.27;;
4794;SDS011;2411;47.060;15.064;2022-12-08T03:35:14;10.93;;;8.07;;
4794;SDS011;2411;47.060;15.064;2022-12-08T03:37:45;9.27;;;7.90;;
4794;SDS011;2411;47.060;15.064;2022-12-08T03:40:13;11.40;;;7.73;;
4794;SDS011;2411;47.060;15.064;2022-12-08T03:42:42;9.20;;;6.83;;
4794;SDS011;2411;47.060;15.064;2022-12-08T03:45:10;8.47;;;7.63;;
4794;SDS011;2411;47.060;15.064;2022-12-08T03:47:37;12.23;;;8.80;;
4794;SDS011;2411;47.060;15.064;2022-12-08T03:50:04;10.03;;;7.23;;
4794;SDS011;2411;47.060;15.064;2022-12-08T03:52:32;10.20;;;7.53;;
4794;SDS011;2411;47.060;15.064;2022-12-08T03:54:59;8.43;;;6.73;;
4794;SDS011;2411;47.060;15.064;2022-12-08T03:57:26;8.13;;;6.40;;
4794;SDS011;2411;47.060;15.064;2022-12-08T03:59:54;7.47;;;6.30;;
4794;SDS011;2411;47.060;15.064;2022-12-08T04:02:21;8.87;;;7.17;;
4794;SDS011;2411;47.060;15.064;2022-12-08T04:04:48;7.27;;;6.00;;
4794;SDS011;2411;47.060;15.064;2022-12-08T04:07:15;8.67;;;6.50;;
4794;SDS011;2411;47.060;15.064;2022-12-08T04:09:42;10.90;;;7.60;;
4794;SDS011;2411;47.060;15.064;2022-12-08T04:12:11;9.40;;;7.70;;
4794;SDS011;2411;47.060;15.064;2022-12-08T04:14:38;8.60;;;7.03;;
4794;SDS011;2411;47.060;15.064;2022-12-08T04:17:05;9.60;;;6.57;;
4794;SDS011;2411;47.060;15.064;2022-12-08T04:19:32;7.47;;;6.50;;
4794;SDS011;2411;47.060;15.064;2022-12-08T04:21:59;8.17;;;7.30;;
4794;SDS011;2411;47.060;15.064;2022-12-08T04:24:26;9.50;;;7.20;;
4794;SDS011;2411;47.060;15.064;2022-12-08T04:26:54;9.20;;;6.70;;
4794;SDS011;2411;47.060;15.064;2022-12-08T04:29:21;9.27;;;7.30;;
4794;SDS011;2411;47.060;15.064;2022-12-08T04:31:48;10.97;;;7.57;;
4794;SDS011;2411;47.060;15.064;2022-12-08T04:34:15;10.57;;;7.57;;
4794;SDS011;2411;47.060;15.064;2022-12-08T04:36:43;8.60;;;7.00;;
4794;SDS011;2411;47.060;15.064;2022-12-08T04:39:10;9.60;;;7.13;;
4794;SDS011;2411;47.060;15.064;2022-12-08T04:41:37;9.93;;;7.50;;
4794;SDS011;2411;47.060;15.064;2022-12-08T04:44:04;9.90;;;7.20;;
4794;SDS011;2411;47.060;15.064;2022-12-08T04:46:31;8.43;;;7.17;;
4794;SDS011;2411;47.060;15.064;2022-12-08T04:49:00;11.37;;;8.30;;
4794;SDS011;2411;47.060;15.064;2022-12-08T04:51:27;9.93;;;6.73;;
4794;SDS011;2411;47.060;15.064;2022-12-08T04:53:54;12.70;;;7.63;;
4794;SDS011;2411;47.060;15.064;2022-12-08T04:56:21;9.50;;;7.10;;
4794;SDS011;2411;47.060;15.064;2022-12-08T04:58:48;9.70;;;7.40;;
4794;SDS011;2411;47.060;15.064;2022-12-08T05:01:15;8.13;;;6.67;;
4794;SDS011;2411;47.060;15.064;2022-12-08T05:03:43;12.30;;;7.80;;
4794;SDS011;2411;47.060;15.064;2022-12-08T05:06:11;9.03;;;7.17;;
4794;SDS011;2411;47.060;15.064;2022-12-08T05:08:39;10.50;;;8.13;;
4794;SDS011;2411;47.060;15.064;2022-12-08T05:11:08;8.27;;;6.53;;
4794;SDS011;2411;47.060;15.064;2022-12-08T05:13:37;7.60;;;6.60;;
4794;SDS011;2411;47.060;15.064;2022-12-08T05:16:08;8.57;;;7.53;;
4794;SDS011;2411;47.060;15.064;2022-12-08T05:18:40;7.90;;;6.57;;
4794;SDS011;2411;47.060;15.064;2022-12-08T05:21:08;10.37;;;7.97;;
4794;SDS011;2411;47.060;15.064;2022-12-08T05:23:36;7.80;;;6.73;;
4794;SDS011;2411;47.060;15.064;2022-12-08T05:26:03;8.17;;;7.33;;
4794;SDS011;2411;47.060;15.064;2022-12-08T05:28:31;8.10;;;7.30;;
4794;SDS011;2411;47.060;15.064;2022-12-08T05:31:08;9.33;;;6.57;;
4794;SDS011;2411;47.060;15.064;2022-12-08T05:33:36;7.07;;;6.33;;
4794;SDS011;2411;47.060;15.064;2022-12-08T05:36:03;7.13;;;6.43;;
4794;SDS011;2411;47.060;15.064;2022-12-08T05:38:31;8.23;;;6.70;;
4794;SDS011;2411;47.060;15.064;2022-12-08T05:40:58;6.80;;;6.10;;
4794;SDS011;2411;47.060;15.064;2022-12-08T05:43:25;7.53;;;6.67;;
4794;SDS011;2411;47.060;15.064;2022-12-08T05:45:53;6.93;;;5.93;;
4794;SDS011;2411;47.060;15.064;2022-12-08T05:48:20;7.20;;;6.50;;
4794;SDS011;2411;47.060;15.064;2022-12-08T05:50:47;8.73;;;7.00;;
4794;SDS011;2411;47.060;15.064;2022-12-08T05:53:16;8.87;;;6.90;;
4794;SDS011;2411;47.060;15.064;2022-12-08T05:55:45;6.63;;;5.93;;
4794;SDS011;2411;47.060;15.064;2022-12-08T05:58:14;7.90;;;6.97;;
4794;SDS011;2411;47.060;15.064;2022-12-08T06:00:43;7.87;;;7.07;;
4794;SDS011;2411;47.060;15.064;2022-12-08T06:03:11;8.03;;;7.20;;
4794;SDS011;2411;47.060;15.064;2022-12-08T06:05:40;8.23;;;7.30;;
4794;SDS011;2411;47.060;15.064;2022-12-08T06:08:08;8.93;;;7.03;;
4794;SDS011;2411;47.060;15.064;2022-12-08T06:10:37;8.70;;;7.10;;
4794;SDS011;2411;47.060;15.064;2022-12-08T06:13:05;9.80;;;7.47;;
4794;SDS011;2411;47.060;15.064;2022-12-08T06:15:33;9.37;;;7.47;;
4794;SDS011;2411;47.060;15.064;2022-12-08T06:18:01;10.80;;;7.87;;
4794;SDS011;2411;47.060;15.064;2022-12-08T06:20:28;9.13;;;8.20;;
4794;SDS011;2411;47.060;15.064;2022-12-08T06:22:56;10.57;;;8.13;;
4794;SDS011;2411;47.060;15.064;2022-12-08T06:25:23;9.70;;;8.00;;
4794;SDS011;2411;47.060;15.064;2022-12-08T06:27:50;10.07;;;7.90;;
4794;SDS011;2411;47.060;15.064;2022-12-08T06:30:18;9.57;;;7.97;;
4794;SDS011;2411;47.060;15.064;2022-12-08T06:32:45;9.83;;;8.80;;
4794;SDS011;2411;47.060;15.064;2022-12-08T06:35:12;12.33;;;8.30;;
4794;SDS011;2411;47.060;15.064;2022-12-08T06:37:39;11.90;;;8.73;;
4794;SDS011;2411;47.060;15.064;2022-12-08T06:40:07;9.93;;;7.63;;
4794;SDS011;2411;47.060;15.064;2022-12-08T06:42:34;10.00;;;8.40;;
4794;SDS011;2411;47.060;15.064;2022-12-08T06:45:15;10.33;;;7.30;;
4794;SDS011;2411;47.060;15.064;2022-12-08T06:47:43;9.23;;;7.67;;
4794;SDS011;2411;47.060;15.064;2022-12-08T06:50:11;9.43;;;7.50;;
4794;SDS011;2411;47.060;15.064;2022-12-08T06:52:39;12.90;;;9.30;;
4794;SDS011;2411;47.060;15.064;2022-12-08T06:55:23;11.63;;;8.70;;
4794;SDS011;2411;47.060;15.064;2022-12-08T06:58:11;9.80;;;8.00;;
4794;SDS011;2411;47.060;15.064;2022-12-08T07:00:39;10.17;;;8.00;;
4794;SDS011;2411;47.060;15.064;2022-12-08T07:03:07;9.63;;;7.80;;
4794;SDS011;2411;47.060;15.064;2022-12-08T07:05:36;12.30;;;9.90;;
4794;SDS011;2411;47.060;15.064;2022-12-08T07:08:05;13.50;;;9.60;;
4794;SDS011;2411;47.060;15.064;2022-12-08T07:10:34;12.97;;;8.70;;
4794;SDS011;2411;47.060;15.064;2022-12-08T07:13:02;11.60;;;9.57;;
4794;SDS011;2411;47.060;15.064;2022-12-08T07:15:29;14.17;;;10.97;;
4794;SDS011;2411;47.060;15.064;2022-12-08T07:17:57;13.60;;;8.80;;
4794;SDS011;2411;47.060;15.064;2022-12-08T07:20:26;14.52;;;10.85;;
4794;SDS011;2411;47.060;15.064;2022-12-08T07:22:53;14.80;;;10.90;;
4794;SDS011;2411;47.060;15.064;2022-12-08T07:25:21;13.93;;;10.23;;
4794;SDS011;2411;47.060;15.064;2022-12-08T07:27:48;16.40;;;11.17;;
4794;SDS011;2411;47.060;15.064;2022-12-08T07:30:17;15.50;;;11.17;;
4794;SDS011;2411;47.060;15.064;2022-12-08T07:32:44;14.10;;;10.97;;
4794;SDS011;2411;47.060;15.064;2022-12-08T07:35:12;12.93;;;10.20;;
4794;SDS011;2411;47.060;15.064;2022-12-08T07:37:39;13.10;;;10.50;;
4794;SDS011;2411;47.060;15.064;2022-12-08T07:40:07;11.50;;;9.50;;
4794;SDS011;2411;47.060;15.064;2022-12-08T07:42:35;10.93;;;9.53;;
4794;SDS011;2411;47.060;15.064;2022-12-08T07:45:02;14.67;;;10.10;;
4794;SDS011;2411;47.060;15.064;2022-12-08T07:47:30;13.90;;;10.50;;
4794;SDS011;2411;47.060;15.064;2022-12-08T07:49:57;11.00;;;9.40;;
4794;SDS011;2411;47.060;15.064;2022-12-08T07:52:24;12.57;;;9.90;;
4794;SDS011;2411;47.060;15.064;2022-12-08T07:54:52;10.77;;;9.10;;
4794;SDS011;2411;47.060;15.064;2022-12-08T07:57:19;11.27;;;9.97;;
4794;SDS011;2411;47.060;15.064;2022-12-08T07:59:46;10.07;;;9.07;;
4794;SDS011;2411;47.060;15.064;2022-12-08T08:02:17;12.37;;;9.83;;
4794;SDS011;2411;47.060;15.064;2022-12-08T08:04:52;15.70;;;10.23;;
4794;SDS011;2411;47.060;15.064;2022-12-08T08:07:19;12.63;;;10.60;;
4794;SDS011;2411;47.060;15.064;2022-12-08T08:09:47;12.93;;;10.47;;
4794;SDS011;2411;47.060;15.064;2022-12-08T08:12:14;12.70;;;10.00;;
4794;SDS011;2411;47.060;15.064;2022-12-08T08:14:58;14.37;;;10.93;;
4794;SDS011;2411;47.060;15.064;2022-12-08T08:17:26;12.10;;;9.23;;
4794;SDS011;2411;47.060;15.064;2022-12-08T08:19:54;12.40;;;8.80;;
4794;SDS011;2411;47.060;15.064;2022-12-08T08:22:23;10.63;;;8.80;;
4794;SDS011;2411;47.060;15.064;2022-12-08T08:24:51;13.33;;;9.97;;
4794;SDS011;2411;47.060;15.064;2022-12-08T08:27:19;10.97;;;9.67;;
4794;SDS011;2411;47.060;15.064;2022-12-08T08:29:46;12.80;;;10.60;;
4794;SDS011;2411;47.060;15.064;2022-12-08T08:32:14;12.90;;;10.97;;
4794;SDS011;2411;47.060;15.064;2022-12-08T08:34:41;14.17;;;11.00;;
4794;SDS011;2411;47.060;15.064;2022-12-08T08:37:08;11.37;;;9.83;;
4794;SDS011;2411;47.060;15.064;2022-12-08T08:39:35;12.27;;;9.90;;
4794;SDS011;2411;47.060;15.064;2022-12-08T08:42:03;12.13;;;9.80;;
4794;SDS011;2411;47.060;15.064;2022-12-08T08:44:30;12.27;;;9.97;;
4794;SDS011;2411;47.060;15.064;2022-12-08T08:46:57;9.60;;;8.60;;
4794;SDS011;2411;47.060;15.064;2022-12-08T08:49:24;11.93;;;8.83;;
4794;SDS011;2411;47.060;15.064;2022-12-08T08:51:51;12.57;;;9.20;;
4794;SDS011;2411;47.060;15.064;2022-12-08T08:54:19;11.80;;;8.90;;
4794;SDS011;2411;47.060;15.064;2022-12-08T08:56:46;15.03;;;10.43;;
4794;SDS011;2411;47.060;15.064;2022-12-08T08:59:13;14.23;;;11.70;;
4794;SDS011;2411;47.060;15.064;2022-12-08T09:01:41;18.80;;;13.40;;
4794;SDS011;2411;47.060;15.064;2022-12-08T09:04:08;14.43;;;10.90;;
4794;SDS011;2411;47.060;15.064;2022-12-08T09:06:36;14.20;;;10.90;;
4794;SDS011;2411;47.060;15.064;2022-12-08T09:09:03;12.90;;;10.80;;
4794;SDS011;2411;47.060;15.064;2022-12-08T09:11:31;15.00;;;10.43;;
4794;SDS011;2411;47.060;15.064;2022-12-08T09:13:58;11.13;;;9.40;;
4794;SDS011;2411;47.060;15.064;2022-12-08T09:16:25;13.93;;;10.20;;
4794;SDS011;2411;47.060;15.064;2022-12-08T09:18:53;10.83;;;9.63;;
4794;SDS011;2411;47.060;15.064;2022-12-08T09:21:21;12.87;;;9.93;;
4794;SDS011;2411;47.060;15.064;2022-12-08T09:23:51;15.47;;;10.43;;
4794;SDS011;2411;47.060;15.064;2022-12-08T09:26:20;12.30;;;9.20;;
4794;SDS011;2411;47.060;15.064;2022-12-08T09:28:49;12.30;;;10.00;;
4794;SDS011;2411;47.060;15.064;2022-12-08T09:31:17;12.90;;;10.07;;
4794;SDS011;2411;47.060;15.064;2022-12-08T09:33:46;13.23;;;10.00;;
4794;SDS011;2411;47.060;15.064;2022-12-08T09:36:17;14.03;;;10.83;;
4794;SDS011;2411;47.060;15.064;2022-12-08T09:38:45;11.90;;;9.93;;
4794;SDS011;2411;47.060;15.064;2022-12-08T09:41:17;14.03;;;9.60;;
4794;SDS011;2411;47.060;15.064;2022-12-08T09:46:54;13.33;;;10.50;;
4794;SDS011;2411;47.060;15.064;2022-12-08T09:49:27;11.17;;;9.33;;
4794;SDS011;2411;47.060;15.064;2022-12-08T09:52:04;12.00;;;10.33;;
4794;SDS011;2411;47.060;15.064;2022-12-08T09:54:39;16.33;;;11.07;;
4794;SDS011;2411;47.060;15.064;2022-12-08T09:57:06;13.40;;;10.40;;
4794;SDS011;2411;47.060;15.064;2022-12-08T09:59:42;12.83;;;10.80;;
4794;SDS011;2411;47.060;15.064;2022-12-08T10:02:23;13.00;;;9.80;;
4794;SDS011;2411;47.060;15.064;2022-12-08T10:04:55;13.10;;;9.00;;
4794;SDS011;2411;47.060;15.064;2022-12-08T10:07:37;12.33;;;10.53;;
4794;SDS011;2411;47.060;15.064;2022-12-08T10:13:39;12.40;;;9.50;;
4794;SDS011;2411;47.060;15.064;2022-12-08T10:19:38;13.70;;;9.60;;
4794;SDS011;2411;47.060;15.064;2022-12-08T10:21:48;11.07;;;9.60;;
4794;SDS011;2411;47.060;15.064;2022-12-08T10:24:25;12.60;;;10.03;;
4794;SDS011;2411;47.060;15.064;2022-12-08T10:27:13;13.20;;;9.93;;
4794;SDS011;2411;47.060;15.064;2022-12-08T10:29:42;13.33;;;10.73;;
4794;SDS011;2411;47.060;15.064;2022-12-08T10:32:32;15.13;;;11.40;;
4794;SDS011;2411;47.060;15.064;2022-12-08T10:37:30;13.93;;;10.50;;
4794;SDS011;2411;47.060;15.064;2022-12-08T10:40:19;15.03;;;12.40;;
4794;SDS011;2411;47.060;15.064;2022-12-08T10:42:45;15.10;;;11.30;;
4794;SDS011;2411;47.060;15.064;2022-12-08T10:48:03;18.07;;;13.40;;
4794;SDS011;2411;47.060;15.064;2022-12-08T10:50:46;12.47;;;11.13;;
4794;SDS011;2411;47.060;15.064;2022-12-08T10:53:27;15.93;;;11.33;;
4794;SDS011;2411;47.060;15.064;2022-12-08T11:01:01;11.90;;;9.53;;
4794;SDS011;2411;47.060;15.064;2022-12-08T11:06:14;13.87;;;10.20;;
4794;SDS011;2411;47.060;15.064;2022-12-08T11:11:22;10.73;;;9.03;;
4794;SDS011;2411;47.060;15.064;2022-12-08T11:14:15;12.13;;;9.57;;
4794;SDS011;2411;47.060;15.064;2022-12-08T11:17:03;12.70;;;9.97;;
4794;SDS011;2411;47.060;15.064;2022-12-08T11:19:39;11.80;;;9.53;;
4794;SDS011;2411;47.060;15.064;2022-12-08T11:22:23;11.53;;;9.53;;
4794;SDS011;2411;47.060;15.064;2022-12-08T11:25:18;12.50;;;9.77;;
4794;SDS011;2411;47.060;15.064;2022-12-08T11:27:48;13.87;;;10.70;;
4794;SDS011;2411;47.060;15.064;2022-12-08T11:30:20;12.37;;;10.03;;
4794;SDS011;2411;47.060;15.064;2022-12-08T11:33:36;13.33;;;10.60;;
4794;SDS011;2411;47.060;15.064;2022-12-08T11:35:55;15.50;;;10.00;;
4794;SDS011;2411;47.060;15.064;2022-12-08T11:38:28;11.90;;;9.40;;
4794;SDS011;2411;47.060;15.064;2022-12-08T11:41:02;15.90;;;11.10;;
4794;SDS011;2411;47.060;15.064;2022-12-08T11:43:47;11.20;;;9.40;;
4794;SDS011;2411;47.060;15.064;2022-12-08T11:46:22;15.60;;;9.97;;
4794;SDS011;2411;47.060;15.064;2022-12-08T11:48:59;13.57;;;10.37;;
4794;SDS011;2411;47.060;15.064;2022-12-08T11:51:39;13.17;;;9.80;;
4794;SDS011;2411;47.060;15.064;2022-12-08T11:54:45;13.63;;;9.50;;
4794;SDS011;2411;47.060;15.064;2022-12-08T11:57:25;12.90;;;9.60;;
4794;SDS011;2411;47.060;15.064;2022-12-08T11:59:55;16.00;;;10.83;;
4794;SDS011;2411;47.060;15.064;2022-12-08T12:02:27;14.53;;;9.40;;
4794;SDS011;2411;47.060;15.064;2022-12-08T12:05:07;14.83;;;10.00;;
4794;SDS011;2411;47.060;15.064;2022-12-08T12:08:59;12.30;;;9.43;;
4794;SDS011;2411;47.060;15.064;2022-12-08T12:19:37;12.53;;;9.80;;
4794;SDS011;2411;47.060;15.064;2022-12-08T12:22:15;12.93;;;9.47;;
4794;SDS011;2411;47.060;15.064;2022-12-08T12:24:46;11.93;;;9.20;;
4794;SDS011;2411;47.060;15.064;2022-12-08T12:30:05;15.80;;;9.60;;
4794;SDS011;2411;47.060;15.064;2022-12-08T12:32:46;14.10;;;10.00;;
4794;SDS011;2411;47.060;15.064;2022-12-08T12:35:21;11.97;;;9.40;;
4794;SDS011;2411;47.060;15.064;2022-12-08T12:38:04;14.17;;;10.30;;
4794;SDS011;2411;47.060;15.064;2022-12-08T12:41:01;18.33;;;9.10;;
4794;SDS011;2411;47.060;15.064;2022-12-08T12:43:30;11.03;;;9.50;;
4794;SDS011;2411;47.060;15.064;2022-12-08T12:48:49;13.30;;;9.77;;
4794;SDS011;2411;47.060;15.064;2022-12-08T12:54:39;16.23;;;9.83;;
4794;SDS011;2411;47.060;15.064;2022-12-08T12:59:42;12.07;;;10.40;;
4794;SDS011;2411;47.060;15.064;2022-12-08T13:08:02;10.20;;;9.00;;
4794;SDS011;2411;47.060;15.064;2022-12-08T13:10:37;13.00;;;10.13;;
4794;SDS011;2411;47.060;15.064;2022-12-08T13:15:36;13.63;;;10.23;;
4794;SDS011;2411;47.060;15.064;2022-12-08T13:18:17;13.90;;;9.60;;
4794;SDS011;2411;47.060;15.064;2022-12-08T13:21:02;13.10;;;9.73;;
4794;SDS011;2411;47.060;15.064;2022-12-08T13:31:39;14.60;;;10.20;;
4794;SDS011;2411;47.060;15.064;2022-12-08T13:34:33;13.10;;;9.80;;
4794;SDS011;2411;47.060;15.064;2022-12-08T13:40:25;17.30;;;9.47;;
4794;SDS011;2411;47.060;15.064;2022-12-08T13:43:07;11.97;;;9.87;;
4794;SDS011;2411;47.060;15.064;2022-12-08T13:45:42;13.87;;;10.70;;
4794;SDS011;2411;47.060;15.064;2022-12-08T13:48:31;13.97;;;11.07;;
4794;SDS011;2411;47.060;15.064;2022-12-08T13:51:22;13.57;;;10.07;;
4794;SDS011;2411;47.060;15.064;2022-12-08T13:57:07;13.77;;;10.20;;
4794;SDS011;2411;47.060;15.064;2022-12-08T13:59:50;12.97;;;10.30;;
4794;SDS011;2411;47.060;15.064;2022-12-08T14:02:28;16.40;;;11.80;;
4794;SDS011;2411;47.060;15.064;2022-12-08T14:05:00;15.17;;;11.47;;
4794;SDS011;2411;47.060;15.064;2022-12-08T14:07:44;13.47;;;11.27;;
4794;SDS011;2411;47.060;15.064;2022-12-08T14:12:54;15.90;;;11.77;;
4794;SDS011;2411;47.060;15.064;2022-12-08T14:15:24;17.23;;;11.70;;
4794;SDS011;2411;47.060;15.064;2022-12-08T14:17:55;16.00;;;11.13;;
4794;SDS011;2411;47.060;15.064;2022-12-08T14:20:30;15.50;;;11.10;;
4794;SDS011;2411;47.060;15.064;2022-12-08T14:23:19;15.70;;;10.87;;
4794;SDS011;2411;47.060;15.064;2022-12-08T14:25:46;13.67;;;10.87;;
4794;SDS011;2411;47.060;15.064;2022-12-08T14:28:14;16.47;;;11.67;;
4794;SDS011;2411;47.060;15.064;2022-12-08T14:30:41;13.30;;;9.67;;
4794;SDS011;2411;47.060;15.064;2022-12-08T14:33:12;15.40;;;10.90;;
4794;SDS011;2411;47.060;15.064;2022-12-08T14:35:42;15.90;;;11.40;;
4794;SDS011;2411;47.060;15.064;2022-12-08T14:38:20;17.37;;;11.30;;
4794;SDS011;2411;47.060;15.064;2022-12-08T14:41:03;14.80;;;10.93;;
4794;SDS011;2411;47.060;15.064;2022-12-08T14:43:33;14.20;;;10.90;;
4794;SDS011;2411;47.060;15.064;2022-12-08T14:46:01;14.90;;;10.83;;
4794;SDS011;2411;47.060;15.064;2022-12-08T14:51:00;18.00;;;11.37;;
4794;SDS011;2411;47.060;15.064;2022-12-08T14:53:40;17.70;;;12.60;;
4794;SDS011;2411;47.060;15.064;2022-12-08T14:59:10;17.87;;;12.07;;
4794;SDS011;2411;47.060;15.064;2022-12-08T15:01:44;17.50;;;12.40;;
4794;SDS011;2411;47.060;15.064;2022-12-08T15:04:15;15.77;;;11.40;;
4794;SDS011;2411;47.060;15.064;2022-12-08T15:06:46;27.50;;;15.07;;
4794;SDS011;2411;47.060;15.064;2022-12-08T15:09:27;18.70;;;13.20;;
4794;SDS011;2411;47.060;15.064;2022-12-08T15:14:40;17.53;;;11.83;;
4794;SDS011;2411;47.060;15.064;2022-12-08T15:23:28;16.50;;;11.70;;
4794;SDS011;2411;47.060;15.064;2022-12-08T15:26:09;20.83;;;13.37;;
4794;SDS011;2411;47.060;15.064;2022-12-08T15:28:46;18.60;;;13.13;;
4794;SDS011;2411;47.060;15.064;2022-12-08T15:31:13;18.97;;;13.10;;
4794;SDS011;2411;47.060;15.064;2022-12-08T15:33:41;19.67;;;12.60;;
4794;SDS011;2411;47.060;15.064;2022-12-08T15:36:08;26.13;;;12.27;;
4794;SDS011;2411;47.060;15.064;2022-12-08T15:38:36;21.33;;;11.90;;
4794;SDS011;2411;47.060;15.064;2022-12-08T15:41:04;21.27;;;11.97;;
4794;SDS011;2411;47.060;15.064;2022-12-08T15:43:38;21.10;;;12.93;;
4794;SDS011;2411;47.060;15.064;2022-12-08T15:46:05;18.40;;;12.13;;
4794;SDS011;2411;47.060;15.064;2022-12-08T15:48:32;21.47;;;13.47;;
4794;SDS011;2411;47.060;15.064;2022-12-08T15:51:00;17.13;;;11.73;;
4794;SDS011;2411;47.060;15.064;2022-12-08T15:53:27;20.67;;;12.53;;
4794;SDS011;2411;47.060;15.064;2022-12-08T15:55:54;20.80;;;13.03;;
4794;SDS011;2411;47.060;15.064;2022-12-08T15:58:41;20.50;;;13.00;;
4794;SDS011;2411;47.060;15.064;2022-12-08T16:01:25;22.77;;;13.10;;
4794;SDS011;2411;47.060;15.064;2022-12-08T16:03:52;16.67;;;11.70;;
4794;SDS011;2411;47.060;15.064;2022-12-08T16:06:41;15.57;;;12.37;;
4794;SDS011;2411;47.060;15.064;2022-12-08T16:09:37;21.43;;;13.20;;
4794;SDS011;2411;47.060;15.064;2022-12-08T16:12:15;22.57;;;14.40;;
4794;SDS011;2411;47.060;15.064;2022-12-08T16:15:22;22.40;;;14.20;;
4794;SDS011;2411;47.060;15.064;2022-12-08T16:18:16;26.63;;;16.40;;
4794;SDS011;2411;47.060;15.064;2022-12-08T16:20:49;26.83;;;15.57;;
4794;SDS011;2411;47.060;15.064;2022-12-08T16:23:36;25.33;;;15.93;;
4794;SDS011;2411;47.060;15.064;2022-12-08T16:26:17;28.67;;;16.30;;
4794;SDS011;2411;47.060;15.064;2022-12-08T16:29:06;29.20;;;17.23;;
4794;SDS011;2411;47.060;15.064;2022-12-08T16:31:44;33.53;;;18.53;;
4794;SDS011;2411;47.060;15.064;2022-12-08T16:34:11;23.97;;;14.70;;
4794;SDS011;2411;47.060;15.064;2022-12-08T16:36:39;22.97;;;14.67;;
4794;SDS011;2411;47.060;15.064;2022-12-08T16:39:06;25.77;;;16.90;;
4794;SDS011;2411;47.060;15.064;2022-12-08T16:41:35;21.17;;;14.50;;
4794;SDS011;2411;47.060;15.064;2022-12-08T16:44:20;29.10;;;17.33;;
4794;SDS011;2411;47.060;15.064;2022-12-08T16:46:47;22.67;;;15.47;;
4794;SDS011;2411;47.060;15.064;2022-12-08T16:49:14;26.17;;;17.23;;
4794;SDS011;2411;47.060;15.064;2022-12-08T16:51:42;19.93;;;13.20;;
4794;SDS011;2411;47.060;15.064;2022-12-08T16:54:10;19.73;;;14.10;;
4794;SDS011;2411;47.060;15.064;2022-12-08T16:56:37;21.07;;;12.80;;
4794;SDS011;2411;47.060;15.064;2022-12-08T16:59:04;23.40;;;14.70;;
4794;SDS011;2411;47.060;15.064;2022-12-08T17:01:31;22.83;;;14.00;;
4794;SDS011;2411;47.060;15.064;2022-12-08T17:03:59;19.93;;;12.87;;
4794;SDS011;2411;47.060;15.064;2022-12-08T17:06:46;17.17;;;12.40;;
4794;SDS011;2411;47.060;15.064;2022-12-08T17:09:13;20.30;;;12.57;;
4794;SDS011;2411;47.060;15.064;2022-12-08T17:11:40;17.40;;;12.20;;
4794;SDS011;2411;47.060;15.064;2022-12-08T17:14:10;18.80;;;13.03;;
4794;SDS011;2411;47.060;15.064;2022-12-08T17:16:38;22.80;;;14.57;;
4794;SDS011;2411;47.060;15.064;2022-12-08T17:19:06;23.60;;;14.57;;
4794;SDS011;2411;47.060;15.064;2022-12-08T17:21:33;18.77;;;13.43;;
4794;SDS011;2411;47.060;15.064;2022-12-08T17:24:01;19.27;;;12.83;;